Archival Weather

Tokyo Intl

Tokyo, Japan (RJTT)

Report from: Sunday, March 19, 2023 5:30 AM JST
Current time: Tuesday, February 27, 2024 7:51 PM JST

Current weather – Weather history – Daily summaries
Weather forecast

Temperature7.0°C (44.6°F)
Wind chill3.4°C (38.1°F)
Dew point3.0°C (37.4°F)
Winds 12 kts (6.2 m/s, 13.8 mph) North-Northeast (20°)
Visibility6.2 mi. (10 km)
Clouds Ceiling: Broken clouds 0 ft. (0 m)
Few clouds 2,500 ft. (762 m)
Altimeter30.00 in.Hg (1016 mB)
Relative humidity76 %
Density altitude-944 ft. (-288 m)
Remarks No significant changes expected in the next two hours
Flight conditions Low Instrument Meteorological Conditions
Raw dataRJTT 182030Z 02012KT 9999 FEW025 BKN/// 07/03 Q1016 NOSIG RMK 1CU025 A3000
An error has occurred. This application may no longer respond until reloaded. Reload 🗙